sensor_id;sensor_type;location;lat;lon;timestamp;P1;durP1;ratioP1;P2;durP2;ratioP2
77164;SDS011;66140;50.280;18.660;2022-12-18T05:00:26;64.65;;;23.73;;
77164;SDS011;66140;50.280;18.660;2022-12-18T05:02:51;62.22;;;22.02;;
77164;SDS011;66140;50.280;18.660;2022-12-18T05:05:16;65.30;;;23.57;;
77164;SDS011;66140;50.280;18.660;2022-12-18T05:07:42;59.90;;;21.08;;
77164;SDS011;66140;50.280;18.660;2022-12-18T05:10:07;49.03;;;18.58;;
77164;SDS011;66140;50.280;18.660;2022-12-18T05:12:33;48.65;;;19.27;;
77164;SDS011;66140;50.280;18.660;2022-12-18T05:15:19;50.63;;;16.98;;
77164;SDS011;66140;50.280;18.660;2022-12-18T05:17:44;56.50;;;17.47;;
77164;SDS011;66140;50.280;18.660;2022-12-18T05:20:10;53.33;;;17.23;;
77164;SDS011;66140;50.280;18.660;2022-12-18T05:22:35;54.70;;;17.80;;
77164;SDS011;66140;50.280;18.660;2022-12-18T05:25:00;45.57;;;15.33;;
77164;SDS011;66140;50.280;18.660;2022-12-18T05:27:26;42.73;;;14.70;;
77164;SDS011;66140;50.280;18.660;2022-12-18T05:29:51;51.53;;;18.23;;
77164;SDS011;66140;50.280;18.660;2022-12-18T05:32:17;40.30;;;13.93;;
77164;SDS011;66140;50.280;18.660;2022-12-18T05:34:42;49.77;;;16.57;;
77164;SDS011;66140;50.280;18.660;2022-12-18T05:37:07;52.17;;;17.77;;
77164;SDS011;66140;50.280;18.660;2022-12-18T05:39:33;48.23;;;15.60;;
77164;SDS011;66140;50.280;18.660;2022-12-18T05:41:58;40.90;;;15.17;;
77164;SDS011;66140;50.280;18.660;2022-12-18T05:44:23;44.37;;;14.97;;
77164;SDS011;66140;50.280;18.660;2022-12-18T05:46:49;44.65;;;14.55;;
77164;SDS011;66140;50.280;18.660;2022-12-18T05:49:14;38.67;;;16.83;;
77164;SDS011;66140;50.280;18.660;2022-12-18T05:51:39;48.83;;;14.18;;
77164;SDS011;66140;50.280;18.660;2022-12-18T05:54:05;40.40;;;14.27;;
77164;SDS011;66140;50.280;18.660;2022-12-18T05:56:30;46.28;;;14.82;;
77164;SDS011;66140;50.280;18.660;2022-12-18T05:58:56;46.53;;;13.23;;
77164;SDS011;66140;50.280;18.660;2022-12-18T06:01:25;42.23;;;15.53;;
77164;SDS011;66140;50.280;18.660;2022-12-18T06:03:51;48.38;;;14.88;;
77164;SDS011;66140;50.280;18.660;2022-12-18T06:06:17;46.70;;;15.75;;
77164;SDS011;66140;50.280;18.660;2022-12-18T06:08:47;43.15;;;14.75;;
77164;SDS011;66140;50.280;18.660;2022-12-18T06:11:15;48.58;;;15.10;;
77164;SDS011;66140;50.280;18.660;2022-12-18T06:13:42;37.22;;;15.07;;
77164;SDS011;66140;50.280;18.660;2022-12-18T06:16:08;43.28;;;14.30;;
77164;SDS011;66140;50.280;18.660;2022-12-18T06:18:33;49.13;;;14.93;;
77164;SDS011;66140;50.280;18.660;2022-12-18T06:20:59;44.85;;;15.55;;
77164;SDS011;66140;50.280;18.660;2022-12-18T06:23:25;45.75;;;15.70;;
77164;SDS011;66140;50.280;18.660;2022-12-18T06:25:51;44.88;;;15.02;;
77164;SDS011;66140;50.280;18.660;2022-12-18T06:28:16;50.22;;;16.88;;
77164;SDS011;66140;50.280;18.660;2022-12-18T06:30:45;43.38;;;14.23;;
77164;SDS011;66140;50.280;18.660;2022-12-18T06:33:13;34.08;;;13.63;;
77164;SDS011;66140;50.280;18.660;2022-12-18T06:35:38;38.13;;;13.82;;
77164;SDS011;66140;50.280;18.660;2022-12-18T06:38:04;40.17;;;15.43;;
77164;SDS011;66140;50.280;18.660;2022-12-18T06:40:29;40.97;;;16.67;;
77164;SDS011;66140;50.280;18.660;2022-12-18T06:42:54;39.50;;;14.53;;
77164;SDS011;66140;50.280;18.660;2022-12-18T06:45:20;42.45;;;15.23;;
77164;SDS011;66140;50.280;18.660;2022-12-18T06:47:45;45.30;;;13.87;;
77164;SDS011;66140;50.280;18.660;2022-12-18T06:50:11;42.20;;;13.98;;
77164;SDS011;66140;50.280;18.660;2022-12-18T06:52:37;43.22;;;14.90;;
77164;SDS011;66140;50.280;18.660;2022-12-18T06:55:04;37.33;;;13.48;;
77164;SDS011;66140;50.280;18.660;2022-12-18T06:57:30;33.92;;;12.38;;
77164;SDS011;66140;50.280;18.660;2022-12-18T06:59:55;34.07;;;12.60;;
77164;SDS011;66140;50.280;18.660;2022-12-18T07:02:21;53.25;;;14.88;;
77164;SDS011;66140;50.280;18.660;2022-12-18T07:04:49;42.80;;;14.53;;
77164;SDS011;66140;50.280;18.660;2022-12-18T07:07:15;35.80;;;12.68;;
77164;SDS011;66140;50.280;18.660;2022-12-18T07:09:40;37.70;;;14.15;;
77164;SDS011;66140;50.280;18.660;2022-12-18T07:12:05;36.23;;;12.97;;
77164;SDS011;66140;50.280;18.660;2022-12-18T07:14:32;32.78;;;12.20;;
77164;SDS011;66140;50.280;18.660;2022-12-18T07:16:58;43.10;;;12.52;;
77164;SDS011;66140;50.280;18.660;2022-12-18T07:19:23;46.97;;;14.83;;
77164;SDS011;66140;50.280;18.660;2022-12-18T07:21:49;38.13;;;13.70;;
77164;SDS011;66140;50.280;18.660;2022-12-18T07:24:15;40.47;;;15.27;;
77164;SDS011;66140;50.280;18.660;2022-12-18T07:26:40;38.85;;;13.63;;
77164;SDS011;66140;50.280;18.660;2022-12-18T07:29:06;40.47;;;14.67;;
77164;SDS011;66140;50.280;18.660;2022-12-18T07:31:31;36.83;;;13.07;;
77164;SDS011;66140;50.280;18.660;2022-12-18T07:33:56;39.03;;;12.97;;
77164;SDS011;66140;50.280;18.660;2022-12-18T07:36:22;43.23;;;15.53;;
77164;SDS011;66140;50.280;18.660;2022-12-18T07:38:48;40.45;;;13.27;;
77164;SDS011;66140;50.280;18.660;2022-12-18T07:41:15;42.30;;;15.57;;
77164;SDS011;66140;50.280;18.660;2022-12-18T07:43:41;33.35;;;13.60;;
77164;SDS011;66140;50.280;18.660;2022-12-18T07:46:07;38.95;;;13.23;;
77164;SDS011;66140;50.280;18.660;2022-12-18T07:48:34;44.60;;;14.40;;
77164;SDS011;66140;50.280;18.660;2022-12-18T07:51:00;35.70;;;13.45;;
77164;SDS011;66140;50.280;18.660;2022-12-18T07:53:26;39.33;;;13.73;;
77164;SDS011;66140;50.280;18.660;2022-12-18T07:55:55;33.20;;;13.63;;
77164;SDS011;66140;50.280;18.660;2022-12-18T07:58:24;38.88;;;14.68;;
77164;SDS011;66140;50.280;18.660;2022-12-18T08:00:50;36.88;;;15.07;;
77164;SDS011;66140;50.280;18.660;2022-12-18T08:03:17;35.05;;;12.82;;
77164;SDS011;66140;50.280;18.660;2022-12-18T08:05:42;32.20;;;11.43;;
77164;SDS011;66140;50.280;18.660;2022-12-18T08:08:08;41.77;;;14.43;;
77164;SDS011;66140;50.280;18.660;2022-12-18T08:10:33;36.90;;;13.47;;
77164;SDS011;66140;50.280;18.660;2022-12-18T08:12:58;34.78;;;13.18;;
77164;SDS011;66140;50.280;18.660;2022-12-18T08:15:24;33.47;;;11.73;;
77164;SDS011;66140;50.280;18.660;2022-12-18T08:17:49;46.27;;;13.77;;
77164;SDS011;66140;50.280;18.660;2022-12-18T08:20:14;46.78;;;16.10;;
77164;SDS011;66140;50.280;18.660;2022-12-18T08:22:41;32.47;;;14.07;;
77164;SDS011;66140;50.280;18.660;2022-12-18T08:25:07;45.28;;;15.57;;
77164;SDS011;66140;50.280;18.660;2022-12-18T08:27:33;40.58;;;15.43;;
77164;SDS011;66140;50.280;18.660;2022-12-18T08:29:58;45.63;;;15.13;;
77164;SDS011;66140;50.280;18.660;2022-12-18T08:32:27;34.15;;;14.27;;
77164;SDS011;66140;50.280;18.660;2022-12-18T08:34:53;36.85;;;12.30;;
77164;SDS011;66140;50.280;18.660;2022-12-18T08:37:18;33.67;;;13.18;;
77164;SDS011;66140;50.280;18.660;2022-12-18T08:39:44;33.97;;;11.75;;
77164;SDS011;66140;50.280;18.660;2022-12-18T08:42:10;40.25;;;14.57;;
77164;SDS011;66140;50.280;18.660;2022-12-18T08:44:54;30.70;;;13.10;;
77164;SDS011;66140;50.280;18.660;2022-12-18T08:47:19;40.97;;;15.87;;
77164;SDS011;66140;50.280;18.660;2022-12-18T08:49:45;43.20;;;14.43;;
77164;SDS011;66140;50.280;18.660;2022-12-18T08:52:10;42.35;;;13.48;;
77164;SDS011;66140;50.280;18.660;2022-12-18T08:54:36;32.55;;;12.70;;
77164;SDS011;66140;50.280;18.660;2022-12-18T08:57:01;38.55;;;13.68;;
77164;SDS011;66140;50.280;18.660;2022-12-18T08:59:27;38.42;;;15.15;;
77164;SDS011;66140;50.280;18.660;2022-12-18T09:01:53;36.07;;;13.73;;
77164;SDS011;66140;50.280;18.660;2022-12-18T09:04:19;39.03;;;13.68;;
77164;SDS011;66140;50.280;18.660;2022-12-18T09:06:44;43.78;;;16.40;;
77164;SDS011;66140;50.280;18.660;2022-12-18T09:09:10;36.72;;;14.90;;
77164;SDS011;66140;50.280;18.660;2022-12-18T09:11:36;40.47;;;14.95;;
77164;SDS011;66140;50.280;18.660;2022-12-18T09:14:02;41.70;;;14.13;;
77164;SDS011;66140;50.280;18.660;2022-12-18T09:16:28;40.35;;;13.23;;
77164;SDS011;66140;50.280;18.660;2022-12-18T09:18:54;46.47;;;16.42;;
77164;SDS011;66140;50.280;18.660;2022-12-18T09:21:24;33.30;;;13.00;;
77164;SDS011;66140;50.280;18.660;2022-12-18T09:23:51;34.15;;;13.23;;
77164;SDS011;66140;50.280;18.660;2022-12-18T09:26:18;39.67;;;13.52;;
77164;SDS011;66140;50.280;18.660;2022-12-18T09:28:44;41.30;;;14.75;;
77164;SDS011;66140;50.280;18.660;2022-12-18T09:31:10;45.53;;;16.25;;
77164;SDS011;66140;50.280;18.660;2022-12-18T09:33:37;41.90;;;17.15;;
77164;SDS011;66140;50.280;18.660;2022-12-18T09:36:03;34.78;;;14.32;;
77164;SDS011;66140;50.280;18.660;2022-12-18T09:38:31;42.33;;;14.43;;
77164;SDS011;66140;50.280;18.660;2022-12-18T09:40:59;44.83;;;13.30;;
77164;SDS011;66140;50.280;18.660;2022-12-18T09:43:45;39.17;;;14.13;;
77164;SDS011;66140;50.280;18.660;2022-12-18T09:46:19;38.95;;;14.48;;
77164;SDS011;66140;50.280;18.660;2022-12-18T09:48:52;41.50;;;16.45;;
77164;SDS011;66140;50.280;18.660;2022-12-18T09:51:22;39.10;;;14.23;;
77164;SDS011;66140;50.280;18.660;2022-12-18T09:54:18;44.20;;;15.63;;
77164;SDS011;66140;50.280;18.660;2022-12-18T09:56:48;41.50;;;15.25;;
77164;SDS011;66140;50.280;18.660;2022-12-18T09:59:23;62.08;;;22.95;;
77164;SDS011;66140;50.280;18.660;2022-12-18T10:01:51;49.55;;;18.33;;
77164;SDS011;66140;50.280;18.660;2022-12-18T10:04:17;47.22;;;19.63;;
77164;SDS011;66140;50.280;18.660;2022-12-18T10:09:34;36.80;;;13.40;;
77164;SDS011;66140;50.280;18.660;2022-12-18T10:12:08;50.10;;;17.45;;
77164;SDS011;66140;50.280;18.660;2022-12-18T10:22:47;30.40;;;12.18;;
77164;SDS011;66140;50.280;18.660;2022-12-18T10:25:31;35.35;;;12.15;;
77164;SDS011;66140;50.280;18.660;2022-12-18T10:28:13;45.17;;;17.13;;
77164;SDS011;66140;50.280;18.660;2022-12-18T10:30:43;43.58;;;17.33;;
77164;SDS011;66140;50.280;18.660;2022-12-18T10:33:11;46.90;;;17.02;;
77164;SDS011;66140;50.280;18.660;2022-12-18T10:35:40;39.08;;;15.55;;
77164;SDS011;66140;50.280;18.660;2022-12-18T10:43:22;34.47;;;14.55;;
77164;SDS011;66140;50.280;18.660;2022-12-18T10:46:00;46.90;;;17.85;;
77164;SDS011;66140;50.280;18.660;2022-12-18T10:51:04;43.05;;;17.05;;
77164;SDS011;66140;50.280;18.660;2022-12-18T10:53:35;32.17;;;13.57;;
77164;SDS011;66140;50.280;18.660;2022-12-18T10:56:03;38.05;;;15.68;;
77164;SDS011;66140;50.280;18.660;2022-12-18T10:58:32;42.05;;;16.20;;
77164;SDS011;66140;50.280;18.660;2022-12-18T11:03:36;41.90;;;15.93;;
77164;SDS011;66140;50.280;18.660;2022-12-18T11:06:19;40.63;;;16.52;;
77164;SDS011;66140;50.280;18.660;2022-12-18T11:11:28;39.13;;;17.77;;
77164;SDS011;66140;50.280;18.660;2022-12-18T11:16:26;35.63;;;15.75;;
77164;SDS011;66140;50.280;18.660;2022-12-18T11:18:59;49.95;;;16.95;;
77164;SDS011;66140;50.280;18.660;2022-12-18T11:21:44;43.67;;;16.33;;
77164;SDS011;66140;50.280;18.660;2022-12-18T11:24:19;51.95;;;18.95;;
77164;SDS011;66140;50.280;18.660;2022-12-18T11:26:51;49.17;;;19.30;;
77164;SDS011;66140;50.280;18.660;2022-12-18T11:29:17;46.83;;;15.35;;
77164;SDS011;66140;50.280;18.660;2022-12-18T11:31:47;46.83;;;16.80;;
77164;SDS011;66140;50.280;18.660;2022-12-18T11:36:51;55.38;;;20.15;;
77164;SDS011;66140;50.280;18.660;2022-12-18T11:39:19;52.80;;;18.67;;
77164;SDS011;66140;50.280;18.660;2022-12-18T11:41:57;47.42;;;17.52;;
77164;SDS011;66140;50.280;18.660;2022-12-18T11:44:41;42.78;;;16.13;;
77164;SDS011;66140;50.280;18.660;2022-12-18T11:50:26;52.10;;;19.98;;
77164;SDS011;66140;50.280;18.660;2022-12-18T11:58:10;44.50;;;18.05;;
77164;SDS011;66140;50.280;18.660;2022-12-18T12:01:07;42.00;;;17.33;;
77164;SDS011;66140;50.280;18.660;2022-12-18T12:03:47;50.20;;;18.88;;
77164;SDS011;66140;50.280;18.660;2022-12-18T12:06:30;40.60;;;16.05;;
77164;SDS011;66140;50.280;18.660;2022-12-18T12:09:08;55.97;;;20.98;;
77164;SDS011;66140;50.280;18.660;2022-12-18T12:12:13;53.70;;;21.33;;
77164;SDS011;66140;50.280;18.660;2022-12-18T12:17:24;53.28;;;20.67;;
77164;SDS011;66140;50.280;18.660;2022-12-18T12:25:35;56.83;;;21.45;;
77164;SDS011;66140;50.280;18.660;2022-12-18T12:28:32;78.85;;;27.67;;
77164;SDS011;66140;50.280;18.660;2022-12-18T12:31:07;47.08;;;19.42;;
77164;SDS011;66140;50.280;18.660;2022-12-18T12:33:54;55.28;;;19.05;;
77164;SDS011;66140;50.280;18.660;2022-12-18T12:39:44;44.72;;;18.20;;
77164;SDS011;66140;50.280;18.660;2022-12-18T12:42:15;43.88;;;18.52;;
77164;SDS011;66140;50.280;18.660;2022-12-18T12:45:04;44.67;;;19.33;;
77164;SDS011;66140;50.280;18.660;2022-12-18T12:47:32;62.75;;;21.83;;
77164;SDS011;66140;50.280;18.660;2022-12-18T12:50:03;49.13;;;19.67;;
77164;SDS011;66140;50.280;18.660;2022-12-18T12:52:41;48.13;;;21.13;;
77164;SDS011;66140;50.280;18.660;2022-12-18T12:55:23;55.38;;;22.05;;
77164;SDS011;66140;50.280;18.660;2022-12-18T13:00:41;47.45;;;20.25;;
77164;SDS011;66140;50.280;18.660;2022-12-18T13:06:15;52.53;;;19.13;;
77164;SDS011;66140;50.280;18.660;2022-12-18T13:09:00;53.50;;;20.17;;
77164;SDS011;66140;50.280;18.660;2022-12-18T13:11:42;52.05;;;20.40;;
77164;SDS011;66140;50.280;18.660;2022-12-18T13:19:49;46.95;;;18.70;;
77164;SDS011;66140;50.280;18.660;2022-12-18T13:22:23;51.63;;;22.20;;
77164;SDS011;66140;50.280;18.660;2022-12-18T13:25:00;42.85;;;17.95;;
77164;SDS011;66140;50.280;18.660;2022-12-18T13:30:59;56.15;;;22.75;;
77164;SDS011;66140;50.280;18.660;2022-12-18T13:33:38;59.97;;;22.77;;
77164;SDS011;66140;50.280;18.660;2022-12-18T13:42:37;64.25;;;22.95;;
77164;SDS011;66140;50.280;18.660;2022-12-18T13:44:58;77.10;;;29.50;;
77164;SDS011;66140;50.280;18.660;2022-12-18T13:47:29;77.10;;;30.02;;
77164;SDS011;66140;50.280;18.660;2022-12-18T13:50:37;83.20;;;30.75;;
77164;SDS011;66140;50.280;18.660;2022-12-18T13:53:16;68.68;;;28.52;;
77164;SDS011;66140;50.280;18.660;2022-12-18T13:55:58;88.25;;;31.75;;
77164;SDS011;66140;50.280;18.660;2022-12-18T13:58:33;85.72;;;33.13;;
77164;SDS011;66140;50.280;18.660;2022-12-18T14:01:23;95.32;;;34.75;;
77164;SDS011;66140;50.280;18.660;2022-12-18T14:04:08;90.65;;;36.63;;
77164;SDS011;66140;50.280;18.660;2022-12-18T14:09:18;98.43;;;41.72;;
77164;SDS011;66140;50.280;18.660;2022-12-18T14:11:59;106.13;;;42.15;;
77164;SDS011;66140;50.280;18.660;2022-12-18T14:14:47;113.95;;;47.83;;
77164;SDS011;66140;50.280;18.660;2022-12-18T14:19:51;142.88;;;65.05;;
77164;SDS011;66140;50.280;18.660;2022-12-18T14:22:40;177.20;;;75.30;;
77164;SDS011;66140;50.280;18.660;2022-12-18T14:25:18;161.57;;;76.47;;
77164;SDS011;66140;50.280;18.660;2022-12-18T14:30:34;112.93;;;53.22;;
77164;SDS011;66140;50.280;18.660;2022-12-18T14:35:34;93.63;;;42.13;;
77164;SDS011;66140;50.280;18.660;2022-12-18T14:40:42;80.00;;;33.22;;
77164;SDS011;66140;50.280;18.660;2022-12-18T14:43:11;91.05;;;31.23;;
77164;SDS011;66140;50.280;18.660;2022-12-18T14:45:37;80.97;;;31.58;;
77164;SDS011;66140;50.280;18.660;2022-12-18T14:48:08;70.13;;;28.45;;
77164;SDS011;66140;50.280;18.660;2022-12-18T14:50:57;86.05;;;35.17;;
77164;SDS011;66140;50.280;18.660;2022-12-18T14:53:39;101.72;;;33.60;;
77164;SDS011;66140;50.280;18.660;2022-12-18T14:56:14;96.80;;;35.65;;
77164;SDS011;66140;50.280;18.660;2022-12-18T14:58:46;79.72;;;32.17;;
77164;SDS011;66140;50.280;18.660;2022-12-18T15:01:33;85.63;;;33.22;;
77164;SDS011;66140;50.280;18.660;2022-12-18T15:04:04;79.75;;;34.53;;
77164;SDS011;66140;50.280;18.660;2022-12-18T15:06:48;91.20;;;36.80;;
77164;SDS011;66140;50.280;18.660;2022-12-18T15:09:23;117.78;;;42.78;;
77164;SDS011;66140;50.280;18.660;2022-12-18T15:11:54;341.27;;;104.70;;
77164;SDS011;66140;50.280;18.660;2022-12-18T15:14:23;255.13;;;85.55;;
77164;SDS011;66140;50.280;18.660;2022-12-18T15:16:54;148.93;;;53.50;;
77164;SDS011;66140;50.280;18.660;2022-12-18T15:19:28;101.28;;;40.55;;
77164;SDS011;66140;50.280;18.660;2022-12-18T15:22:00;89.82;;;37.72;;
77164;SDS011;66140;50.280;18.660;2022-12-18T15:24:27;91.07;;;37.10;;
77164;SDS011;66140;50.280;18.660;2022-12-18T15:26:56;101.95;;;36.50;;
77164;SDS011;66140;50.280;18.660;2022-12-18T15:29:21;97.00;;;37.72;;
77164;SDS011;66140;50.280;18.660;2022-12-18T15:31:58;83.22;;;34.83;;
77164;SDS011;66140;50.280;18.660;2022-12-18T15:34:25;89.22;;;35.70;;
77164;SDS011;66140;50.280;18.660;2022-12-18T15:36:51;96.93;;;37.83;;
77164;SDS011;66140;50.280;18.660;2022-12-18T15:39:16;107.68;;;41.42;;
77164;SDS011;66140;50.280;18.660;2022-12-18T15:41:42;113.70;;;41.20;;
77164;SDS011;66140;50.280;18.660;2022-12-18T15:44:27;105.40;;;42.17;;
77164;SDS011;66140;50.280;18.660;2022-12-18T15:46:53;97.20;;;40.60;;
77164;SDS011;66140;50.280;18.660;2022-12-18T15:49:18;108.43;;;40.93;;
77164;SDS011;66140;50.280;18.660;2022-12-18T15:51:44;113.85;;;45.30;;
77164;SDS011;66140;50.280;18.660;2022-12-18T15:54:13;94.88;;;43.72;;
77164;SDS011;66140;50.280;18.660;2022-12-18T15:56:41;115.80;;;46.60;;
77164;SDS011;66140;50.280;18.660;2022-12-18T15:59:25;110.90;;;48.85;;
77164;SDS011;66140;50.280;18.660;2022-12-18T16:01:51;99.93;;;45.90;;
77164;SDS011;66140;50.280;18.660;2022-12-18T16:04:18;113.85;;;47.13;;
77164;SDS011;66140;50.280;18.660;2022-12-18T16:06:48;137.43;;;51.10;;
77164;SDS011;66140;50.280;18.660;2022-12-18T16:09:14;138.60;;;58.20;;
77164;SDS011;66140;50.280;18.660;2022-12-18T16:11:41;134.68;;;54.45;;
77164;SDS011;66140;50.280;18.660;2022-12-18T16:14:21;161.13;;;66.32;;
77164;SDS011;66140;50.280;18.660;2022-12-18T16:17:02;158.38;;;66.57;;
77164;SDS011;66140;50.280;18.660;2022-12-18T16:19:30;157.25;;;69.68;;
77164;SDS011;66140;50.280;18.660;2022-12-18T16:21:56;224.40;;;78.03;;
77164;SDS011;66140;50.280;18.660;2022-12-18T16:24:23;212.73;;;84.18;;
77164;SDS011;66140;50.280;18.660;2022-12-18T16:26:51;220.77;;;84.78;;
77164;SDS011;66140;50.280;18.660;2022-12-18T16:29:18;226.07;;;97.88;;
77164;SDS011;66140;50.280;18.660;2022-12-18T16:31:49;175.38;;;76.47;;
77164;SDS011;66140;50.280;18.660;2022-12-18T16:34:20;151.15;;;59.40;;
77164;SDS011;66140;50.280;18.660;2022-12-18T16:36:49;166.48;;;63.15;;
77164;SDS011;66140;50.280;18.660;2022-12-18T16:39:15;152.52;;;58.90;;
77164;SDS011;66140;50.280;18.660;2022-12-18T16:41:41;139.30;;;62.50;;
77164;SDS011;66140;50.280;18.660;2022-12-18T16:44:06;151.27;;;63.95;;
77164;SDS011;66140;50.280;18.660;2022-12-18T16:49:17;127.13;;;53.88;;
77164;SDS011;66140;50.280;18.660;2022-12-18T16:51:43;113.20;;;54.22;;
77164;SDS011;66140;50.280;18.660;2022-12-18T16:54:10;142.85;;;62.08;;
77164;SDS011;66140;50.280;18.660;2022-12-18T16:56:36;149.63;;;59.30;;
77164;SDS011;66140;50.280;18.660;2022-12-18T16:59:02;140.82;;;57.30;;
77164;SDS011;66140;50.280;18.660;2022-12-18T17:01:29;120.95;;;50.80;;
77164;SDS011;66140;50.280;18.660;2022-12-18T17:03:57;118.63;;;52.17;;
77164;SDS011;66140;50.280;18.660;2022-12-18T17:06:24;147.75;;;59.78;;
77164;SDS011;66140;50.280;18.660;2022-12-18T17:09:10;130.70;;;50.28;;
77164;SDS011;66140;50.280;18.660;2022-12-18T17:11:38;137.13;;;50.90;;
77164;SDS011;66140;50.280;18.660;2022-12-18T17:14:06;134.75;;;53.92;;
77164;SDS011;66140;50.280;18.660;2022-12-18T17:16:37;105.68;;;44.85;;
77164;SDS011;66140;50.280;18.660;2022-12-18T17:19:02;148.02;;;54.95;;
77164;SDS011;66140;50.280;18.660;2022-12-18T17:21:28;131.20;;;53.10;;
77164;SDS011;66140;50.280;18.660;2022-12-18T17:23:54;130.77;;;48.58;;
77164;SDS011;66140;50.280;18.660;2022-12-18T17:26:19;138.32;;;51.75;;
77164;SDS011;66140;50.280;18.660;2022-12-18T17:28:45;128.48;;;52.50;;
77164;SDS011;66140;50.280;18.660;2022-12-18T17:31:16;125.05;;;53.00;;
77164;SDS011;66140;50.280;18.660;2022-12-18T17:33:43;121.57;;;55.15;;
77164;SDS011;66140;50.280;18.660;2022-12-18T17:36:09;137.55;;;56.65;;
77164;SDS011;66140;50.280;18.660;2022-12-18T17:38:35;168.63;;;69.22;;
77164;SDS011;66140;50.280;18.660;2022-12-18T17:41:02;172.98;;;75.28;;
77164;SDS011;66140;50.280;18.660;2022-12-18T17:43:28;187.68;;;75.55;;
77164;SDS011;66140;50.280;18.660;2022-12-18T17:45:54;156.18;;;68.40;;
77164;SDS011;66140;50.280;18.660;2022-12-18T17:48:20;161.75;;;72.97;;
77164;SDS011;66140;50.280;18.660;2022-12-18T17:50:46;159.15;;;71.68;;
77164;SDS011;66140;50.280;18.660;2022-12-18T17:53:11;146.32;;;59.10;;
77164;SDS011;66140;50.280;18.660;2022-12-18T17:55:37;144.77;;;58.33;;
77164;SDS011;66140;50.280;18.660;2022-12-18T17:58:03;120.90;;;52.50;;
77164;SDS011;66140;50.280;18.660;2022-12-18T18:00:29;141.68;;;62.50;;
77164;SDS011;66140;50.280;18.660;2022-12-18T18:02:54;131.93;;;55.95;;
77164;SDS011;66140;50.280;18.660;2022-12-18T18:05:20;170.73;;;64.38;;
77164;SDS011;66140;50.280;18.660;2022-12-18T18:07:45;136.53;;;57.10;;
77164;SDS011;66140;50.280;18.660;2022-12-18T18:10:11;123.90;;;50.28;;
77164;SDS011;66140;50.280;18.660;2022-12-18T18:12:36;120.03;;;49.25;;
77164;SDS011;66140;50.280;18.660;2022-12-18T18:15:21;91.35;;;37.42;;
77164;SDS011;66140;50.280;18.660;2022-12-18T18:17:46;83.22;;;38.97;;
77164;SDS011;66140;50.280;18.660;2022-12-18T18:20:12;96.80;;;40.50;;
77164;SDS011;66140;50.280;18.660;2022-12-18T18:22:41;110.50;;;46.20;;
77164;SDS011;66140;50.280;18.660;2022-12-18T18:25:06;81.00;;;43.72;;
77164;SDS011;66140;50.280;18.660;2022-12-18T18:27:32;97.83;;;39.57;;
77164;SDS011;66140;50.280;18.660;2022-12-18T18:29:57;72.82;;;37.35;;
77164;SDS011;66140;50.280;18.660;2022-12-18T18:32:22;90.35;;;37.20;;
77164;SDS011;66140;50.280;18.660;2022-12-18T18:34:48;88.97;;;40.00;;
77164;SDS011;66140;50.280;18.660;2022-12-18T18:37:14;78.68;;;34.83;;
77164;SDS011;66140;50.280;18.660;2022-12-18T18:39:39;86.32;;;40.50;;
77164;SDS011;66140;50.280;18.660;2022-12-18T18:42:05;88.40;;;35.97;;
77164;SDS011;66140;50.280;18.660;2022-12-18T18:44:30;100.22;;;43.03;;
77164;SDS011;66140;50.280;18.660;2022-12-18T18:46:56;98.30;;;40.08;;
77164;SDS011;66140;50.280;18.660;2022-12-18T18:49:23;71.88;;;30.02;;
77164;SDS011;66140;50.280;18.660;2022-12-18T18:51:51;87.85;;;35.35;;
77164;SDS011;66140;50.280;18.660;2022-12-18T18:54:16;64.82;;;34.13;;
77164;SDS011;66140;50.280;18.660;2022-12-18T18:56:42;68.50;;;29.63;;
77164;SDS011;66140;50.280;18.660;2022-12-18T18:59:10;79.32;;;35.08;;
77164;SDS011;66140;50.280;18.660;2022-12-18T19:01:35;78.60;;;34.22;;
77164;SDS011;66140;50.280;18.660;2022-12-18T19:04:00;74.80;;;32.25;;
77164;SDS011;66140;50.280;18.660;2022-12-18T19:06:26;86.05;;;35.95;;
77164;SDS011;66140;50.280;18.660;2022-12-18T19:08:52;95.97;;;44.28;;
77164;SDS011;66140;50.280;18.660;2022-12-18T19:11:19;86.82;;;39.38;;
77164;SDS011;66140;50.280;18.660;2022-12-18T19:14:05;86.30;;;38.95;;
77164;SDS011;66140;50.280;18.660;2022-12-18T19:16:32;81.97;;;34.40;;
77164;SDS011;66140;50.280;18.660;2022-12-18T19:18:58;79.45;;;35.35;;
77164;SDS011;66140;50.280;18.660;2022-12-18T19:21:24;64.15;;;29.67;;
77164;SDS011;66140;50.280;18.660;2022-12-18T19:23:50;64.28;;;26.67;;
77164;SDS011;66140;50.280;18.660;2022-12-18T19:26:15;71.32;;;30.48;;
77164;SDS011;66140;50.280;18.660;2022-12-18T19:28:41;78.43;;;28.27;;
77164;SDS011;66140;50.280;18.660;2022-12-18T19:31:08;56.40;;;26.70;;
77164;SDS011;66140;50.280;18.660;2022-12-18T19:36:20;39.92;;;19.85;;
77164;SDS011;66140;50.280;18.660;2022-12-18T19:38:50;55.50;;;25.38;;
77164;SDS011;66140;50.280;18.660;2022-12-18T19:41:19;74.82;;;28.88;;
77164;SDS011;66140;50.280;18.660;2022-12-18T19:43:46;73.63;;;29.05;;
77164;SDS011;66140;50.280;18.660;2022-12-18T19:46:13;45.55;;;24.77;;
77164;SDS011;66140;50.280;18.660;2022-12-18T19:48:41;42.15;;;21.40;;
77164;SDS011;66140;50.280;18.660;2022-12-18T19:51:07;63.75;;;28.83;;
77164;SDS011;66140;50.280;18.660;2022-12-18T19:53:35;65.05;;;29.02;;
77164;SDS011;66140;50.280;18.660;2022-12-18T19:56:04;87.60;;;31.00;;
77164;SDS011;66140;50.280;18.660;2022-12-18T19:58:31;64.53;;;30.48;;
77164;SDS011;66140;50.280;18.660;2022-12-18T20:00:56;71.78;;;28.38;;
77164;SDS011;66140;50.280;18.660;2022-12-18T20:03:22;62.58;;;27.50;;
77164;SDS011;66140;50.280;18.660;2022-12-18T20:05:47;62.60;;;29.15;;
77164;SDS011;66140;50.280;18.660;2022-12-18T20:08:13;64.80;;;24.83;;
77164;SDS011;66140;50.280;18.660;2022-12-18T20:10:40;67.35;;;24.48;;
77164;SDS011;66140;50.280;18.660;2022-12-18T20:13:08;71.43;;;29.77;;
77164;SDS011;66140;50.280;18.660;2022-12-18T20:15:34;74.30;;;30.90;;
77164;SDS011;66140;50.280;18.660;2022-12-18T20:18:00;86.72;;;33.88;;
77164;SDS011;66140;50.280;18.660;2022-12-18T20:20:26;84.68;;;34.95;;
77164;SDS011;66140;50.280;18.660;2022-12-18T20:22:51;82.60;;;36.13;;
77164;SDS011;66140;50.280;18.660;2022-12-18T20:25:19;78.63;;;33.45;;
77164;SDS011;66140;50.280;18.660;2022-12-18T20:27:45;59.80;;;30.48;;
